sensor_id;sensor_type;location;lat;lon;timestamp;temperature;humidity
75387;DHT22;63966;47.914;22.266;2023-07-28T00:02:27;12.46;90.68
75387;DHT22;63966;47.914;22.266;2023-07-28T00:05:30;12.46;90.48
75387;DHT22;63966;47.914;22.266;2023-07-28T00:08:34;12.51;90.48
75387;DHT22;63966;47.914;22.266;2023-07-28T00:11:37;12.49;90.36
75387;DHT22;63966;47.914;22.266;2023-07-28T00:14:40;12.56;89.51
75387;DHT22;63966;47.914;22.266;2023-07-28T00:17:44;12.59;89.28
75387;DHT22;63966;47.914;22.266;2023-07-28T00:20:47;12.62;89.06
75387;DHT22;63966;47.914;22.266;2023-07-28T00:23:51;12.59;89.16
75387;DHT22;63966;47.914;22.266;2023-07-28T00:26:54;12.55;89.25
75387;DHT22;63966;47.914;22.266;2023-07-28T00:29:57;12.58;88.71
75387;DHT22;63966;47.914;22.266;2023-07-28T00:33:01;12.58;88.54
75387;DHT22;63966;47.914;22.266;2023-07-28T00:36:04;12.55;88.45
75387;DHT22;63966;47.914;22.266;2023-07-28T00:39:08;12.52;88.45
75387;DHT22;63966;47.914;22.266;2023-07-28T00:42:11;12.48;89.23
75387;DHT22;63966;47.914;22.266;2023-07-28T00:45:14;12.45;89.23
75387;DHT22;63966;47.914;22.266;2023-07-28T00:48:18;12.38;89.95
75387;DHT22;63966;47.914;22.266;2023-07-28T00:51:23;12.34;90.62
75387;DHT22;63966;47.914;22.266;2023-07-28T00:54:27;12.30;90.60
75387;DHT22;63966;47.914;22.266;2023-07-28T00:57:31;12.31;90.66
75387;DHT22;63966;47.914;22.266;2023-07-28T01:00:34;12.27;90.70
75387;DHT22;63966;47.914;22.266;2023-07-28T01:03:37;12.18;90.66
75387;DHT22;63966;47.914;22.266;2023-07-28T01:06:57;12.21;89.95
75387;DHT22;63966;47.914;22.266;2023-07-28T01:10:10;12.25;89.28
75387;DHT22;63966;47.914;22.266;2023-07-28T01:13:15;12.24;90.03
75387;DHT22;63966;47.914;22.266;2023-07-28T01:16:18;12.30;90.17
75387;DHT22;63966;47.914;22.266;2023-07-28T01:19:22;12.37;89.95
75387;DHT22;63966;47.914;22.266;2023-07-28T01:26:09;12.23;89.84
75387;DHT22;63966;47.914;22.266;2023-07-28T01:29:14;12.17;90.16
75387;DHT22;63966;47.914;22.266;2023-07-28T01:32:19;12.16;89.66
75387;DHT22;63966;47.914;22.266;2023-07-28T01:35:23;12.34;88.81
75387;DHT22;63966;47.914;22.266;2023-07-28T01:38:27;12.51;87.77
75387;DHT22;63966;47.914;22.266;2023-07-28T01:41:31;12.49;87.57
75387;DHT22;63966;47.914;22.266;2023-07-28T01:44:34;12.55;87.24
75387;DHT22;63966;47.914;22.266;2023-07-28T01:47:37;12.49;87.42
75387;DHT22;63966;47.914;22.266;2023-07-28T01:50:41;12.41;87.40
75387;DHT22;63966;47.914;22.266;2023-07-28T01:53:44;12.37;87.58
75387;DHT22;63966;47.914;22.266;2023-07-28T01:56:47;12.33;88.30
75387;DHT22;63966;47.914;22.266;2023-07-28T01:59:51;12.27;88.89
75387;DHT22;63966;47.914;22.266;2023-07-28T02:02:54;12.23;88.61
75387;DHT22;63966;47.914;22.266;2023-07-28T02:05:58;12.20;88.72
75387;DHT22;63966;47.914;22.266;2023-07-28T02:09:02;12.24;87.96
75387;DHT22;63966;47.914;22.266;2023-07-28T02:12:06;12.23;88.06
75387;DHT22;63966;47.914;22.266;2023-07-28T02:15:10;12.21;88.05
75387;DHT22;63966;47.914;22.266;2023-07-28T02:18:13;12.17;88.61
75387;DHT22;63966;47.914;22.266;2023-07-28T02:21:17;12.10;88.49
75387;DHT22;63966;47.914;22.266;2023-07-28T02:24:20;12.07;88.51
75387;DHT22;63966;47.914;22.266;2023-07-28T02:27:23;12.03;89.06
75387;DHT22;63966;47.914;22.266;2023-07-28T02:30:27;11.97;89.60
75387;DHT22;63966;47.914;22.266;2023-07-28T02:33:31;11.97;89.38
75387;DHT22;63966;47.914;22.266;2023-07-28T02:36:38;12.13;88.36
75387;DHT22;63966;47.914;22.266;2023-07-28T02:39:42;12.13;88.63
75387;DHT22;63966;47.914;22.266;2023-07-28T02:42:45;12.24;88.16
75387;DHT22;63966;47.914;22.266;2023-07-28T02:45:54;12.21;88.44
75387;DHT22;63966;47.914;22.266;2023-07-28T02:48:58;12.13;88.61
75387;DHT22;63966;47.914;22.266;2023-07-28T02:52:01;12.10;88.48
75387;DHT22;63966;47.914;22.266;2023-07-28T02:55:06;12.10;88.62
75387;DHT22;63966;47.914;22.266;2023-07-28T02:58:10;12.12;88.61
75387;DHT22;63966;47.914;22.266;2023-07-28T03:01:14;12.12;88.48
75387;DHT22;63966;47.914;22.266;2023-07-28T03:04:18;12.04;88.72
75387;DHT22;63966;47.914;22.266;2023-07-28T03:07:55;12.06;88.73
75387;DHT22;63966;47.914;22.266;2023-07-28T03:10:59;12.21;88.08
75387;DHT22;63966;47.914;22.266;2023-07-28T03:14:05;12.28;87.76
75387;DHT22;63966;47.914;22.266;2023-07-28T03:17:08;12.35;87.46
75387;DHT22;63966;47.914;22.266;2023-07-28T03:20:12;12.76;86.36
75387;DHT22;63966;47.914;22.266;2023-07-28T03:23:15;13.36;84.14
75387;DHT22;63966;47.914;22.266;2023-07-28T03:26:19;13.94;81.58
75387;DHT22;63966;47.914;22.266;2023-07-28T03:29:22;14.50;79.40
75387;DHT22;63966;47.914;22.266;2023-07-28T03:32:26;14.94;77.33
75387;DHT22;63966;47.914;22.266;2023-07-28T03:35:29;15.54;75.56
75387;DHT22;63966;47.914;22.266;2023-07-28T03:38:40;16.14;73.42
75387;DHT22;63966;47.914;22.266;2023-07-28T03:41:43;16.55;72.45
75387;DHT22;63966;47.914;22.266;2023-07-28T03:44:47;17.36;69.50
75387;DHT22;63966;47.914;22.266;2023-07-28T03:47:53;18.04;67.58
75387;DHT22;63966;47.914;22.266;2023-07-28T03:50:56;18.67;64.35
75387;DHT22;63966;47.914;22.266;2023-07-28T03:54:00;19.23;63.16
75387;DHT22;63966;47.914;22.266;2023-07-28T03:57:03;19.64;62.49
75387;DHT22;63966;47.914;22.266;2023-07-28T04:00:07;19.95;61.27
75387;DHT22;63966;47.914;22.266;2023-07-28T04:03:17;19.74;61.98
75387;DHT22;63966;47.914;22.266;2023-07-28T04:06:40;18.01;66.35
75387;DHT22;63966;47.914;22.266;2023-07-28T04:09:44;17.48;68.32
75387;DHT22;63966;47.914;22.266;2023-07-28T04:12:47;17.07;70.19
75387;DHT22;63966;47.914;22.266;2023-07-28T04:15:51;16.81;71.60
75387;DHT22;63966;47.914;22.266;2023-07-28T04:18:54;16.75;72.31
75387;DHT22;63966;47.914;22.266;2023-07-28T04:21:58;16.69;72.61
75387;DHT22;63966;47.914;22.266;2023-07-28T04:25:02;16.52;73.95
75387;DHT22;63966;47.914;22.266;2023-07-28T04:28:06;16.25;75.07
75387;DHT22;63966;47.914;22.266;2023-07-28T04:31:11;16.32;74.55
75387;DHT22;63966;47.914;22.266;2023-07-28T04:34:28;16.33;74.74
75387;DHT22;63966;47.914;22.266;2023-07-28T04:37:42;16.38;74.23
75387;DHT22;63966;47.914;22.266;2023-07-28T04:40:47;16.39;74.15
75387;DHT22;63966;47.914;22.266;2023-07-28T04:43:54;16.75;73.36
75387;DHT22;63966;47.914;22.266;2023-07-28T04:47:00;16.94;72.76
75387;DHT22;63966;47.914;22.266;2023-07-28T04:50:04;18.14;69.35
75387;DHT22;63966;47.914;22.266;2023-07-28T04:53:26;19.57;64.95
75387;DHT22;63966;47.914;22.266;2023-07-28T04:56:52;21.82;58.32
75387;DHT22;63966;47.914;22.266;2023-07-28T05:00:03;23.20;54.04
75387;DHT22;63966;47.914;22.266;2023-07-28T05:03:07;22.47;54.54
75387;DHT22;63966;47.914;22.266;2023-07-28T05:06:15;20.74;60.24
75387;DHT22;63966;47.914;22.266;2023-07-28T05:09:19;20.84;59.35
75387;DHT22;63966;47.914;22.266;2023-07-28T05:12:22;22.92;54.73
75387;DHT22;63966;47.914;22.266;2023-07-28T05:15:25;24.41;50.54
75387;DHT22;63966;47.914;22.266;2023-07-28T05:18:29;25.84;47.09
75387;DHT22;63966;47.914;22.266;2023-07-28T05:21:52;24.34;51.08
75387;DHT22;63966;47.914;22.266;2023-07-28T05:25:01;23.35;52.97
75387;DHT22;63966;47.914;22.266;2023-07-28T05:28:08;24.72;49.64
75387;DHT22;63966;47.914;22.266;2023-07-28T05:31:14;25.23;48.47
75387;DHT22;63966;47.914;22.266;2023-07-28T05:34:19;26.90;45.05
75387;DHT22;63966;47.914;22.266;2023-07-28T05:37:22;28.14;42.43
75387;DHT22;63966;47.914;22.266;2023-07-28T05:40:26;29.13;41.54
75387;DHT22;63966;47.914;22.266;2023-07-28T05:43:30;28.25;42.16
75387;DHT22;63966;47.914;22.266;2023-07-28T05:46:34;27.24;44.51
75387;DHT22;63966;47.914;22.266;2023-07-28T05:49:38;25.64;48.18
75387;DHT22;63966;47.914;22.266;2023-07-28T05:53:00;24.34;50.63
75387;DHT22;63966;47.914;22.266;2023-07-28T05:56:04;24.17;51.33
75387;DHT22;63966;47.914;22.266;2023-07-28T05:59:08;23.99;52.25
75387;DHT22;63966;47.914;22.266;2023-07-28T06:02:12;23.34;54.80
75387;DHT22;63966;47.914;22.266;2023-07-28T06:05:35;23.92;53.00
75387;DHT22;63966;47.914;22.266;2023-07-28T06:08:38;25.56;50.13
75387;DHT22;63966;47.914;22.266;2023-07-28T06:11:41;25.94;48.64
75387;DHT22;63966;47.914;22.266;2023-07-28T06:14:45;25.18;50.83
75387;DHT22;63966;47.914;22.266;2023-07-28T06:17:49;24.77;50.63
75387;DHT22;63966;47.914;22.266;2023-07-28T06:20:53;26.86;45.68
75387;DHT22;63966;47.914;22.266;2023-07-28T06:23:57;27.00;46.18
75387;DHT22;63966;47.914;22.266;2023-07-28T06:27:00;28.16;43.93
75387;DHT22;63966;47.914;22.266;2023-07-28T06:30:07;29.45;41.62
75387;DHT22;63966;47.914;22.266;2023-07-28T06:33:10;30.73;39.23
75387;DHT22;63966;47.914;22.266;2023-07-28T06:36:14;28.34;41.90
75387;DHT22;63966;47.914;22.266;2023-07-28T06:39:17;27.31;44.55
75387;DHT22;63966;47.914;22.266;2023-07-28T06:42:21;26.76;46.14
75387;DHT22;63966;47.914;22.266;2023-07-28T06:45:31;26.84;45.21
75387;DHT22;63966;47.914;22.266;2023-07-28T06:48:35;26.25;47.89
75387;DHT22;63966;47.914;22.266;2023-07-28T06:51:38;24.72;51.49
75387;DHT22;63966;47.914;22.266;2023-07-28T06:54:42;23.41;53.92
75387;DHT22;63966;47.914;22.266;2023-07-28T06:57:45;23.34;54.36
75387;DHT22;63966;47.914;22.266;2023-07-28T07:00:48;23.23;55.05
75387;DHT22;63966;47.914;22.266;2023-07-28T07:03:52;23.43;55.84
75387;DHT22;63966;47.914;22.266;2023-07-28T07:06:56;23.34;55.09
75387;DHT22;63966;47.914;22.266;2023-07-28T07:09:59;23.24;56.74
75387;DHT22;63966;47.914;22.266;2023-07-28T07:13:03;22.95;55.78
75387;DHT22;63966;47.914;22.266;2023-07-28T07:16:17;23.00;56.58
75387;DHT22;63966;47.914;22.266;2023-07-28T07:19:28;22.48;57.00
75387;DHT22;63966;47.914;22.266;2023-07-28T07:22:32;22.41;57.86
75387;DHT22;63966;47.914;22.266;2023-07-28T07:25:35;22.39;58.43
75387;DHT22;63966;47.914;22.266;2023-07-28T07:28:39;22.17;59.29
75387;DHT22;63966;47.914;22.266;2023-07-28T07:31:42;22.22;59.55
75387;DHT22;63966;47.914;22.266;2023-07-28T07:34:46;22.31;58.57
75387;DHT22;63966;47.914;22.266;2023-07-28T07:37:50;22.04;59.53
75387;DHT22;63966;47.914;22.266;2023-07-28T07:40:53;21.93;59.49
75387;DHT22;63966;47.914;22.266;2023-07-28T07:43:56;22.07;60.42
75387;DHT22;63966;47.914;22.266;2023-07-28T07:47:01;22.30;60.60
75387;DHT22;63966;47.914;22.266;2023-07-28T07:50:14;22.52;60.03
75387;DHT22;63966;47.914;22.266;2023-07-28T07:53:17;22.69;58.11
75387;DHT22;63966;47.914;22.266;2023-07-28T07:56:21;22.69;60.06
75387;DHT22;63966;47.914;22.266;2023-07-28T07:59:24;22.82;59.97
75387;DHT22;63966;47.914;22.266;2023-07-28T08:02:31;22.63;59.23
75387;DHT22;63966;47.914;22.266;2023-07-28T08:05:34;22.28;58.77
75387;DHT22;63966;47.914;22.266;2023-07-28T08:08:38;22.69;57.84
75387;DHT22;63966;47.914;22.266;2023-07-28T08:11:45;23.02;59.29
75387;DHT22;63966;47.914;22.266;2023-07-28T08:14:49;23.16;57.19
75387;DHT22;63966;47.914;22.266;2023-07-28T08:17:52;23.07;56.83
75387;DHT22;63966;47.914;22.266;2023-07-28T08:20:56;23.17;57.28
75387;DHT22;63966;47.914;22.266;2023-07-28T08:23:59;23.11;56.97
75387;DHT22;63966;47.914;22.266;2023-07-28T08:27:02;23.27;58.17
75387;DHT22;63966;47.914;22.266;2023-07-28T08:30:07;23.28;56.22
75387;DHT22;63966;47.914;22.266;2023-07-28T08:33:10;24.03;55.29
75387;DHT22;63966;47.914;22.266;2023-07-28T08:36:14;24.50;54.90
75387;DHT22;63966;47.914;22.266;2023-07-28T08:39:18;25.04;52.72
75387;DHT22;63966;47.914;22.266;2023-07-28T08:42:22;24.60;53.39
75387;DHT22;63966;47.914;22.266;2023-07-28T08:45:28;24.79;53.74
75387;DHT22;63966;47.914;22.266;2023-07-28T08:48:32;24.50;54.15
75387;DHT22;63966;47.914;22.266;2023-07-28T08:51:40;24.37;54.18
75387;DHT22;63966;47.914;22.266;2023-07-28T08:54:43;24.34;52.52
75387;DHT22;63966;47.914;22.266;2023-07-28T08:57:47;23.53;54.92
75387;DHT22;63966;47.914;22.266;2023-07-28T09:00:54;23.50;55.43
75387;DHT22;63966;47.914;22.266;2023-07-28T09:03:57;23.96;55.02
75387;DHT22;63966;47.914;22.266;2023-07-28T09:07:04;24.94;54.10
75387;DHT22;63966;47.914;22.266;2023-07-28T09:10:09;25.95;51.06
75387;DHT22;63966;47.914;22.266;2023-07-28T09:13:13;25.57;51.07
75387;DHT22;63966;47.914;22.266;2023-07-28T09:16:20;25.32;49.88
75387;DHT22;63966;47.914;22.266;2023-07-28T09:19:24;25.40;50.84
75387;DHT22;63966;47.914;22.266;2023-07-28T09:22:30;26.43;49.96
75387;DHT22;63966;47.914;22.266;2023-07-28T09:25:35;26.76;49.51
75387;DHT22;63966;47.914;22.266;2023-07-28T09:28:39;26.49;47.70
75387;DHT22;63966;47.914;22.266;2023-07-28T09:31:48;25.51;50.08
75387;DHT22;63966;47.914;22.266;2023-07-28T09:35:06;25.09;48.83
75387;DHT22;63966;47.914;22.266;2023-07-28T09:38:11;24.79;51.11
75387;DHT22;63966;47.914;22.266;2023-07-28T09:41:16;24.49;53.35
75387;DHT22;63966;47.914;22.266;2023-07-28T09:44:20;24.39;52.58
75387;DHT22;63966;47.914;22.266;2023-07-28T09:47:25;24.85;51.58
75387;DHT22;63966;47.914;22.266;2023-07-28T09:50:32;25.04;52.10
75387;DHT22;63966;47.914;22.266;2023-07-28T09:53:44;25.27;51.25
75387;DHT22;63966;47.914;22.266;2023-07-28T09:56:49;25.87;49.64
75387;DHT22;63966;47.914;22.266;2023-07-28T09:59:54;26.22;48.56
75387;DHT22;63966;47.914;22.266;2023-07-28T10:02:58;26.63;49.55
75387;DHT22;63966;47.914;22.266;2023-07-28T10:06:02;27.23;47.99
75387;DHT22;63966;47.914;22.266;2023-07-28T10:09:07;26.64;46.78
75387;DHT22;63966;47.914;22.266;2023-07-28T10:12:18;26.39;47.79
75387;DHT22;63966;47.914;22.266;2023-07-28T10:15:29;26.24;47.76
75387;DHT22;63966;47.914;22.266;2023-07-28T10:18:33;26.43;49.02
75387;DHT22;63966;47.914;22.266;2023-07-28T10:21:40;26.69;47.32
75387;DHT22;63966;47.914;22.266;2023-07-28T10:25:00;26.15;48.10
75387;DHT22;63966;47.914;22.266;2023-07-28T10:28:05;26.84;47.78
75387;DHT22;63966;47.914;22.266;2023-07-28T10:31:10;27.48;48.40
75387;DHT22;63966;47.914;22.266;2023-07-28T10:34:17;27.67;44.80
75387;DHT22;63966;47.914;22.266;2023-07-28T10:37:23;27.41;46.38
75387;DHT22;63966;47.914;22.266;2023-07-28T10:40:31;26.64;46.53
75387;DHT22;63966;47.914;22.266;2023-07-28T10:43:38;26.06;46.35
75387;DHT22;63966;47.914;22.266;2023-07-28T10:46:43;25.62;47.92
75387;DHT22;63966;47.914;22.266;2023-07-28T10:49:47;25.60;47.69
75387;DHT22;63966;47.914;22.266;2023-07-28T10:52:51;25.19;47.45
75387;DHT22;63966;47.914;22.266;2023-07-28T10:55:55;25.30;48.70
75387;DHT22;63966;47.914;22.266;2023-07-28T10:59:00;25.19;47.41
75387;DHT22;63966;47.914;22.266;2023-07-28T11:02:04;25.37;46.84
75387;DHT22;63966;47.914;22.266;2023-07-28T11:05:11;25.70;47.81
75387;DHT22;63966;47.914;22.266;2023-07-28T11:08:18;26.25;46.69
75387;DHT22;63966;47.914;22.266;2023-07-28T11:11:21;26.05;46.50
75387;DHT22;63966;47.914;22.266;2023-07-28T11:14:25;25.88;47.01
75387;DHT22;63966;47.914;22.266;2023-07-28T11:17:28;25.75;47.94
75387;DHT22;63966;47.914;22.266;2023-07-28T11:20:33;25.94;47.45
75387;DHT22;63966;47.914;22.266;2023-07-28T11:23:37;25.80;48.12
75387;DHT22;63966;47.914;22.266;2023-07-28T11:26:42;25.94;48.43
75387;DHT22;63966;47.914;22.266;2023-07-28T11:29:46;26.01;47.40
75387;DHT22;63966;47.914;22.266;2023-07-28T11:32:52;26.18;47.33
75387;DHT22;63966;47.914;22.266;2023-07-28T11:35:56;25.73;49.49
75387;DHT22;63966;47.914;22.266;2023-07-28T11:39:01;26.09;49.44
75387;DHT22;63966;47.914;22.266;2023-07-28T11:42:09;26.24;47.54
75387;DHT22;63966;47.914;22.266;2023-07-28T11:45:16;26.04;47.22
75387;DHT22;63966;47.914;22.266;2023-07-28T11:48:19;25.87;47.71
75387;DHT22;63966;47.914;22.266;2023-07-28T11:51:24;25.91;49.36
75387;DHT22;63966;47.914;22.266;2023-07-28T11:54:27;26.24;50.32
75387;DHT22;63966;47.914;22.266;2023-07-28T11:57:32;26.48;48.47
75387;DHT22;63966;47.914;22.266;2023-07-28T12:00:39;26.70;48.88
75387;DHT22;63966;47.914;22.266;2023-07-28T12:03:46;26.77;47.61
75387;DHT22;63966;47.914;22.266;2023-07-28T12:07:31;26.70;50.62
75387;DHT22;63966;47.914;22.266;2023-07-28T12:10:35;26.96;49.76
75387;DHT22;63966;47.914;22.266;2023-07-28T12:13:51;26.70;46.61
75387;DHT22;63966;47.914;22.266;2023-07-28T12:16:57;26.38;46.97
75387;DHT22;63966;47.914;22.266;2023-07-28T12:20:05;26.14;46.94
75387;DHT22;63966;47.914;22.266;2023-07-28T12:23:21;25.74;48.17
75387;DHT22;63966;47.914;22.266;2023-07-28T12:26:27;25.70;47.72
75387;DHT22;63966;47.914;22.266;2023-07-28T12:29:31;25.69;48.72
75387;DHT22;63966;47.914;22.266;2023-07-28T12:32:34;25.35;49.44
75387;DHT22;63966;47.914;22.266;2023-07-28T12:35:40;25.14;47.66
75387;DHT22;63966;47.914;22.266;2023-07-28T12:38:47;25.43;48.16
75387;DHT22;63966;47.914;22.266;2023-07-28T12:41:50;25.64;49.38
75387;DHT22;63966;47.914;22.266;2023-07-28T12:44:57;26.14;48.58
75387;DHT22;63966;47.914;22.266;2023-07-28T12:48:03;26.12;46.97
75387;DHT22;63966;47.914;22.266;2023-07-28T12:51:07;26.24;48.37
75387;DHT22;63966;47.914;22.266;2023-07-28T12:54:10;26.18;46.89
75387;DHT22;63966;47.914;22.266;2023-07-28T12:57:14;26.04;48.18
75387;DHT22;63966;47.914;22.266;2023-07-28T13:00:17;25.93;47.42
75387;DHT22;63966;47.914;22.266;2023-07-28T13:03:23;26.08;47.34
75387;DHT22;63966;47.914;22.266;2023-07-28T13:06:27;25.95;46.82
75387;DHT22;63966;47.914;22.266;2023-07-28T13:09:30;25.98;46.30
75387;DHT22;63966;47.914;22.266;2023-07-28T13:12:37;25.77;46.55
75387;DHT22;63966;47.914;22.266;2023-07-28T13:15:43;25.69;47.78
75387;DHT22;63966;47.914;22.266;2023-07-28T13:18:48;25.71;48.64
75387;DHT22;63966;47.914;22.266;2023-07-28T13:21:51;25.75;48.89
75387;DHT22;63966;47.914;22.266;2023-07-28T13:24:55;25.87;53.46
75387;DHT22;63966;47.914;22.266;2023-07-28T13:27:58;26.04;49.83
75387;DHT22;63966;47.914;22.266;2023-07-28T13:31:02;26.21;50.63
75387;DHT22;63966;47.914;22.266;2023-07-28T13:34:06;26.41;49.71
75387;DHT22;63966;47.914;22.266;2023-07-28T13:37:10;26.70;48.63
75387;DHT22;63966;47.914;22.266;2023-07-28T13:40:13;26.48;47.35
75387;DHT22;63966;47.914;22.266;2023-07-28T13:43:17;26.49;46.91
75387;DHT22;63966;47.914;22.266;2023-07-28T13:46:20;26.66;46.17
75387;DHT22;63966;47.914;22.266;2023-07-28T13:49:24;26.50;46.72
75387;DHT22;63966;47.914;22.266;2023-07-28T13:52:27;26.26;46.15
75387;DHT22;63966;47.914;22.266;2023-07-28T13:55:31;26.48;45.57
75387;DHT22;63966;47.914;22.266;2023-07-28T13:58:37;26.69;47.28
75387;DHT22;63966;47.914;22.266;2023-07-28T14:01:41;26.62;47.17
75387;DHT22;63966;47.914;22.266;2023-07-28T14:04:44;26.53;45.77
75387;DHT22;63966;47.914;22.266;2023-07-28T14:07:48;26.39;46.23
75387;DHT22;63966;47.914;22.266;2023-07-28T14:10:52;26.31;45.82
75387;DHT22;63966;47.914;22.266;2023-07-28T14:13:55;26.38;47.21
75387;DHT22;63966;47.914;22.266;2023-07-28T14:16:59;26.53;46.35
75387;DHT22;63966;47.914;22.266;2023-07-28T14:20:02;26.46;47.66
75387;DHT22;63966;47.914;22.266;2023-07-28T14:23:26;26.11;46.67
75387;DHT22;63966;47.914;22.266;2023-07-28T14:26:30;25.88;48.26
75387;DHT22;63966;47.914;22.266;2023-07-28T14:29:33;26.06;48.61
75387;DHT22;63966;47.914;22.266;2023-07-28T14:32:37;26.01;47.50
75387;DHT22;63966;47.914;22.266;2023-07-28T14:35:40;25.95;48.33
75387;DHT22;63966;47.914;22.266;2023-07-28T14:38:44;25.83;48.64
75387;DHT22;63966;47.914;22.266;2023-07-28T14:41:47;25.77;48.05
75387;DHT22;63966;47.914;22.266;2023-07-28T14:44:51;25.81;49.15
75387;DHT22;63966;47.914;22.266;2023-07-28T14:47:54;25.88;49.12
75387;DHT22;63966;47.914;22.266;2023-07-28T14:50:57;25.85;48.74
75387;DHT22;63966;47.914;22.266;2023-07-28T14:54:01;25.87;49.91
75387;DHT22;63966;47.914;22.266;2023-07-28T14:57:04;25.77;49.33
75387;DHT22;63966;47.914;22.266;2023-07-28T15:00:16;25.63;51.47
75387;DHT22;63966;47.914;22.266;2023-07-28T15:03:20;25.63;49.84
75387;DHT22;63966;47.914;22.266;2023-07-28T15:06:23;25.66;49.27
75387;DHT22;63966;47.914;22.266;2023-07-28T15:09:27;25.75;50.19
75387;DHT22;63966;47.914;22.266;2023-07-28T15:12:31;25.80;48.36
75387;DHT22;63966;47.914;22.266;2023-07-28T15:15:34;25.73;49.14
75387;DHT22;63966;47.914;22.266;2023-07-28T15:18:38;25.74;49.15
75387;DHT22;63966;47.914;22.266;2023-07-28T15:21:42;25.71;48.54
75387;DHT22;63966;47.914;22.266;2023-07-28T15:24:45;25.73;48.89
75387;DHT22;63966;47.914;22.266;2023-07-28T15:27:49;25.66;49.66
75387;DHT22;63966;47.914;22.266;2023-07-28T15:30:52;25.63;49.25
75387;DHT22;63966;47.914;22.266;2023-07-28T15:33:58;25.63;50.35
75387;DHT22;63966;47.914;22.266;2023-07-28T15:37:02;25.64;49.68
75387;DHT22;63966;47.914;22.266;2023-07-28T15:40:07;25.69;49.20
75387;DHT22;63966;47.914;22.266;2023-07-28T15:43:10;25.62;49.76
75387;DHT22;63966;47.914;22.266;2023-07-28T15:46:13;25.67;47.91
75387;DHT22;63966;47.914;22.266;2023-07-28T15:49:17;25.50;50.51
75387;DHT22;63966;47.914;22.266;2023-07-28T15:52:21;25.36;49.15
75387;DHT22;63966;47.914;22.266;2023-07-28T15:55:25;25.19;50.27
75387;DHT22;63966;47.914;22.266;2023-07-28T15:58:28;25.18;50.93
75387;DHT22;63966;47.914;22.266;2023-07-28T16:01:32;25.25;50.18
75387;DHT22;63966;47.914;22.266;2023-07-28T16:04:35;25.12;51.89
75387;DHT22;63966;47.914;22.266;2023-07-28T16:07:40;25.14;51.04
75387;DHT22;63966;47.914;22.266;2023-07-28T16:10:44;25.20;51.01
75387;DHT22;63966;47.914;22.266;2023-07-28T16:13:47;25.14;50.85
75387;DHT22;63966;47.914;22.266;2023-07-28T16:16:51;25.11;51.52
75387;DHT22;63966;47.914;22.266;2023-07-28T16:19:54;25.06;51.23
75387;DHT22;63966;47.914;22.266;2023-07-28T16:22:57;25.04;51.94
75387;DHT22;63966;47.914;22.266;2023-07-28T16:26:01;25.08;51.17
75387;DHT22;63966;47.914;22.266;2023-07-28T16:29:04;25.02;51.47
75387;DHT22;63966;47.914;22.266;2023-07-28T16:32:08;24.89;51.94
75387;DHT22;63966;47.914;22.266;2023-07-28T16:35:14;24.81;52.43
75387;DHT22;63966;47.914;22.266;2023-07-28T16:38:17;24.72;53.16
75387;DHT22;63966;47.914;22.266;2023-07-28T16:41:21;24.64;53.48
75387;DHT22;63966;47.914;22.266;2023-07-28T16:44:24;24.54;54.34
75387;DHT22;63966;47.914;22.266;2023-07-28T16:47:27;24.46;54.86
75387;DHT22;63966;47.914;22.266;2023-07-28T16:50:32;24.43;54.83
75387;DHT22;63966;47.914;22.266;2023-07-28T16:53:35;24.37;55.56
75387;DHT22;63966;47.914;22.266;2023-07-28T16:56:39;24.46;55.43
75387;DHT22;63966;47.914;22.266;2023-07-28T16:59:44;24.47;55.62
75387;DHT22;63966;47.914;22.266;2023-07-28T17:02:47;24.43;56.20
75387;DHT22;63966;47.914;22.266;2023-07-28T17:05:52;24.43;56.41
75387;DHT22;63966;47.914;22.266;2023-07-28T17:08:55;24.36;56.77
75387;DHT22;63966;47.914;22.266;2023-07-28T17:11:59;24.31;57.12
75387;DHT22;63966;47.914;22.266;2023-07-28T17:15:02;24.13;57.96
75387;DHT22;63966;47.914;22.266;2023-07-28T17:18:05;24.05;58.37
75387;DHT22;63966;47.914;22.266;2023-07-28T17:21:09;24.01;58.36
75387;DHT22;63966;47.914;22.266;2023-07-28T17:24:13;23.93;58.54
75387;DHT22;63966;47.914;22.266;2023-07-28T17:27:16;23.82;59.22
75387;DHT22;63966;47.914;22.266;2023-07-28T17:30:20;23.72;59.34
75387;DHT22;63966;47.914;22.266;2023-07-28T17:33:23;23.75;59.09
75387;DHT22;63966;47.914;22.266;2023-07-28T17:36:27;23.59;59.94
75387;DHT22;63966;47.914;22.266;2023-07-28T17:39:30;23.53;59.63
75387;DHT22;63966;47.914;22.266;2023-07-28T17:42:33;23.38;59.62
75387;DHT22;63966;47.914;22.266;2023-07-28T17:45:37;23.33;59.89
75387;DHT22;63966;47.914;22.266;2023-07-28T17:48:40;23.21;60.15
75387;DHT22;63966;47.914;22.266;2023-07-28T17:51:44;23.18;60.01
75387;DHT22;63966;47.914;22.266;2023-07-28T17:54:47;23.14;59.99
75387;DHT22;63966;47.914;22.266;2023-07-28T17:57:50;23.08;60.24
75387;DHT22;63966;47.914;22.266;2023-07-28T18:00:54;23.03;60.64
75387;DHT22;63966;47.914;22.266;2023-07-28T18:03:58;22.93;60.99
75387;DHT22;63966;47.914;22.266;2023-07-28T18:07:01;22.85;61.13
75387;DHT22;63966;47.914;22.266;2023-07-28T18:10:05;22.82;61.36
75387;DHT22;63966;47.914;22.266;2023-07-28T18:13:09;22.85;60.98
75387;DHT22;63966;47.914;22.266;2023-07-28T18:16:13;22.86;61.43
75387;DHT22;63966;47.914;22.266;2023-07-28T18:19:17;22.77;61.59
75387;DHT22;63966;47.914;22.266;2023-07-28T18:22:21;22.79;61.48
75387;DHT22;63966;47.914;22.266;2023-07-28T18:25:24;22.79;61.50
75387;DHT22;63966;47.914;22.266;2023-07-28T18:28:28;22.77;61.90
75387;DHT22;63966;47.914;22.266;2023-07-28T18:31:31;22.73;62.40
75387;DHT22;63966;47.914;22.266;2023-07-28T18:34:35;22.76;61.93
75387;DHT22;63966;47.914;22.266;2023-07-28T18:37:39;22.70;63.27
75387;DHT22;63966;47.914;22.266;2023-07-28T18:40:42;22.59;64.87
75387;DHT22;63966;47.914;22.266;2023-07-28T18:43:46;22.44;66.38
75387;DHT22;63966;47.914;22.266;2023-07-28T18:46:49;22.45;68.10
75387;DHT22;63966;47.914;22.266;2023-07-28T18:49:52;22.15;66.65
75387;DHT22;63966;47.914;22.266;2023-07-28T18:52:56;22.10;65.92
75387;DHT22;63966;47.914;22.266;2023-07-28T18:56:00;22.07;66.79
75387;DHT22;63966;47.914;22.266;2023-07-28T18:59:03;22.05;68.41
75387;DHT22;63966;47.914;22.266;2023-07-28T19:02:07;21.82;72.37
75387;DHT22;63966;47.914;22.266;2023-07-28T19:05:10;21.25;75.22
75387;DHT22;63966;47.914;22.266;2023-07-28T19:08:14;20.98;75.45
75387;DHT22;63966;47.914;22.266;2023-07-28T19:11:18;20.87;77.19
75387;DHT22;63966;47.914;22.266;2023-07-28T19:14:21;20.41;80.55